Honea Path, South Carolina
Current Conditions -  °F | °C
As of 6:56 PM on Saturday 22 Nov 2014 (Local Time) from KAND Reporting Station
Clear Clear  
Wind Chill: 45°   Ceiling: Unl
Heat Index: 45°   Visibility: 10mi
Dew Point: 27°   Wind: 3mph
Humidity: 49%   Direction: 60°ENE
Pressure: 30.33"   Gusts: NA
Location:  34.45°N, 82.39°W
Report Text: KAND 222356Z AUTO 06003KT 10SM CLR 07/M03 A3033 RMK AO2 SLP272 T00721028 10144 20072 56005
Loading
Personal Weather Stations






























Interactive Weather Map New forecast layout! Learn more

10-Day Weather Forecast

Advertisements
Track Severe Weather on mobile